sensor_id;sensor_type;location;lat;lon;timestamp;pressure;altitude;pressure_sealevel;temperature
10869;BMP180;62667;48.698;8.762;2023-06-19T00:01:49;95708.00;;;21.70
10869;BMP180;62667;48.698;8.762;2023-06-19T00:04:16;95709.00;;;21.70
10869;BMP180;62667;48.698;8.762;2023-06-19T00:06:44;95704.00;;;21.60
10869;BMP180;62667;48.698;8.762;2023-06-19T00:09:11;95710.00;;;21.60
10869;BMP180;62667;48.698;8.762;2023-06-19T00:11:39;95711.00;;;21.60
10869;BMP180;62667;48.698;8.762;2023-06-19T00:14:07;95708.00;;;21.60
10869;BMP180;62667;48.698;8.762;2023-06-19T00:16:36;95703.00;;;21.70
10869;BMP180;62667;48.698;8.762;2023-06-19T00:19:03;95708.00;;;21.70
10869;BMP180;62667;48.698;8.762;2023-06-19T00:21:30;95711.00;;;21.70
10869;BMP180;62667;48.698;8.762;2023-06-19T00:23:58;95717.00;;;21.70
10869;BMP180;62667;48.698;8.762;2023-06-19T00:26:25;95708.00;;;21.70
10869;BMP180;62667;48.698;8.762;2023-06-19T00:28:53;95700.00;;;21.70
10869;BMP180;62667;48.698;8.762;2023-06-19T00:31:20;95709.00;;;21.70
10869;BMP180;62667;48.698;8.762;2023-06-19T00:33:49;95709.00;;;21.70
10869;BMP180;62667;48.698;8.762;2023-06-19T00:36:17;95700.00;;;21.70
10869;BMP180;62667;48.698;8.762;2023-06-19T00:38:46;95708.00;;;21.50
10869;BMP180;62667;48.698;8.762;2023-06-19T00:41:14;95739.00;;;21.40
10869;BMP180;62667;48.698;8.762;2023-06-19T00:43:42;95768.00;;;21.10
10869;BMP180;62667;48.698;8.762;2023-06-19T00:46:10;95777.00;;;20.60
10869;BMP180;62667;48.698;8.762;2023-06-19T00:48:39;95793.00;;;20.60
10869;BMP180;62667;48.698;8.762;2023-06-19T00:51:08;95792.00;;;20.50
10869;BMP180;62667;48.698;8.762;2023-06-19T00:53:36;95799.00;;;20.70
10869;BMP180;62667;48.698;8.762;2023-06-19T00:56:04;95792.00;;;21.00
10869;BMP180;62667;48.698;8.762;2023-06-19T00:58:32;95791.00;;;21.40
10869;BMP180;62667;48.698;8.762;2023-06-19T01:01:01;95797.00;;;21.40
10869;BMP180;62667;48.698;8.762;2023-06-19T01:03:28;95808.00;;;21.40
10869;BMP180;62667;48.698;8.762;2023-06-19T01:05:57;95810.00;;;21.30
10869;BMP180;62667;48.698;8.762;2023-06-19T01:08:42;95791.00;;;21.30
10869;BMP180;62667;48.698;8.762;2023-06-19T01:11:12;95805.00;;;21.20
10869;BMP180;62667;48.698;8.762;2023-06-19T01:13:45;95798.00;;;21.10
10869;BMP180;62667;48.698;8.762;2023-06-19T01:16:15;95811.00;;;21.20
10869;BMP180;62667;48.698;8.762;2023-06-19T01:18:43;95818.00;;;21.00
10869;BMP180;62667;48.698;8.762;2023-06-19T01:21:11;95816.00;;;20.90
10869;BMP180;62667;48.698;8.762;2023-06-19T01:23:41;95808.00;;;21.00
10869;BMP180;62667;48.698;8.762;2023-06-19T01:26:08;95810.00;;;21.00
10869;BMP180;62667;48.698;8.762;2023-06-19T01:28:37;95815.00;;;20.90
10869;BMP180;62667;48.698;8.762;2023-06-19T01:31:08;95808.00;;;20.80
10869;BMP180;62667;48.698;8.762;2023-06-19T01:33:39;95814.00;;;20.80
10869;BMP180;62667;48.698;8.762;2023-06-19T01:36:07;95806.00;;;20.80
10869;BMP180;62667;48.698;8.762;2023-06-19T01:38:35;95799.00;;;20.80
10869;BMP180;62667;48.698;8.762;2023-06-19T01:41:06;95800.00;;;20.80
10869;BMP180;62667;48.698;8.762;2023-06-19T01:43:34;95800.00;;;20.80
10869;BMP180;62667;48.698;8.762;2023-06-19T01:46:02;95801.00;;;20.80
10869;BMP180;62667;48.698;8.762;2023-06-19T01:48:29;95794.00;;;20.80
10869;BMP180;62667;48.698;8.762;2023-06-19T01:50:57;95801.00;;;20.80
10869;BMP180;62667;48.698;8.762;2023-06-19T01:53:24;95798.00;;;20.70
10869;BMP180;62667;48.698;8.762;2023-06-19T01:55:51;95798.00;;;20.70
10869;BMP180;62667;48.698;8.762;2023-06-19T01:58:20;95793.00;;;20.80
10869;BMP180;62667;48.698;8.762;2023-06-19T02:00:48;95789.00;;;20.90
10869;BMP180;62667;48.698;8.762;2023-06-19T02:03:15;95772.00;;;20.90
10869;BMP180;62667;48.698;8.762;2023-06-19T02:05:43;95775.00;;;21.00
10869;BMP180;62667;48.698;8.762;2023-06-19T02:08:10;95764.00;;;20.90
10869;BMP180;62667;48.698;8.762;2023-06-19T02:10:38;95763.00;;;21.00
10869;BMP180;62667;48.698;8.762;2023-06-19T02:13:05;95763.00;;;20.90
10869;BMP180;62667;48.698;8.762;2023-06-19T02:15:34;95771.00;;;20.70
10869;BMP180;62667;48.698;8.762;2023-06-19T02:18:02;95769.00;;;20.70
10869;BMP180;62667;48.698;8.762;2023-06-19T02:20:29;95773.00;;;20.80
10869;BMP180;62667;48.698;8.762;2023-06-19T02:22:57;95775.00;;;20.50
10869;BMP180;62667;48.698;8.762;2023-06-19T02:25:24;95785.00;;;20.60
10869;BMP180;62667;48.698;8.762;2023-06-19T02:27:52;95784.00;;;20.60
10869;BMP180;62667;48.698;8.762;2023-06-19T02:30:19;95793.00;;;20.20
10869;BMP180;62667;48.698;8.762;2023-06-19T02:32:48;95798.00;;;20.20
10869;BMP180;62667;48.698;8.762;2023-06-19T02:35:15;95786.00;;;20.30
10869;BMP180;62667;48.698;8.762;2023-06-19T02:37:43;95796.00;;;20.30
10869;BMP180;62667;48.698;8.762;2023-06-19T02:40:13;95792.00;;;20.10
10869;BMP180;62667;48.698;8.762;2023-06-19T02:42:40;95798.00;;;19.90
10869;BMP180;62667;48.698;8.762;2023-06-19T02:45:09;95807.00;;;19.80
10869;BMP180;62667;48.698;8.762;2023-06-19T02:47:36;95807.00;;;19.90
10869;BMP180;62667;48.698;8.762;2023-06-19T02:50:06;95815.00;;;20.00
10869;BMP180;62667;48.698;8.762;2023-06-19T02:52:33;95822.00;;;19.80
10869;BMP180;62667;48.698;8.762;2023-06-19T02:55:01;95821.00;;;19.80
10869;BMP180;62667;48.698;8.762;2023-06-19T02:57:28;95820.00;;;19.80
10869;BMP180;62667;48.698;8.762;2023-06-19T02:59:56;95826.00;;;19.70
10869;BMP180;62667;48.698;8.762;2023-06-19T03:02:23;95826.00;;;19.60
10869;BMP180;62667;48.698;8.762;2023-06-19T03:04:51;95820.00;;;19.60
10869;BMP180;62667;48.698;8.762;2023-06-19T03:07:20;95819.00;;;19.70
10869;BMP180;62667;48.698;8.762;2023-06-19T03:09:47;95815.00;;;19.80
10869;BMP180;62667;48.698;8.762;2023-06-19T03:12:15;95818.00;;;19.70
10869;BMP180;62667;48.698;8.762;2023-06-19T03:14:42;95825.00;;;19.60
10869;BMP180;62667;48.698;8.762;2023-06-19T03:17:10;95828.00;;;19.90
10869;BMP180;62667;48.698;8.762;2023-06-19T03:19:37;95825.00;;;19.70
10869;BMP180;62667;48.698;8.762;2023-06-19T03:22:05;95849.00;;;19.50
10869;BMP180;62667;48.698;8.762;2023-06-19T03:24:34;95840.00;;;19.30
10869;BMP180;62667;48.698;8.762;2023-06-19T03:27:01;95841.00;;;19.20
10869;BMP180;62667;48.698;8.762;2023-06-19T03:29:28;95841.00;;;19.20
10869;BMP180;62667;48.698;8.762;2023-06-19T03:31:56;95857.00;;;18.70
10869;BMP180;62667;48.698;8.762;2023-06-19T03:34:23;95841.00;;;18.40
10869;BMP180;62667;48.698;8.762;2023-06-19T03:36:51;95836.00;;;18.30
10869;BMP180;62667;48.698;8.762;2023-06-19T03:39:18;95832.00;;;18.60
10869;BMP180;62667;48.698;8.762;2023-06-19T03:41:47;95838.00;;;18.70
10869;BMP180;62667;48.698;8.762;2023-06-19T03:44:15;95840.00;;;18.60
10869;BMP180;62667;48.698;8.762;2023-06-19T03:46:42;95854.00;;;18.50
10869;BMP180;62667;48.698;8.762;2023-06-19T03:49:09;95849.00;;;18.50
10869;BMP180;62667;48.698;8.762;2023-06-19T03:51:37;95883.00;;;18.30
10869;BMP180;62667;48.698;8.762;2023-06-19T03:54:04;95876.00;;;18.10
10869;BMP180;62667;48.698;8.762;2023-06-19T03:56:32;95864.00;;;18.00
10869;BMP180;62667;48.698;8.762;2023-06-19T03:59:01;95859.00;;;18.00
10869;BMP180;62667;48.698;8.762;2023-06-19T04:01:28;95868.00;;;18.20
10869;BMP180;62667;48.698;8.762;2023-06-19T04:03:56;95861.00;;;18.30
10869;BMP180;62667;48.698;8.762;2023-06-19T04:06:23;95869.00;;;18.50
10869;BMP180;62667;48.698;8.762;2023-06-19T04:08:51;95866.00;;;18.50
10869;BMP180;62667;48.698;8.762;2023-06-19T04:11:19;95862.00;;;18.70
10869;BMP180;62667;48.698;8.762;2023-06-19T04:13:46;95864.00;;;18.50
10869;BMP180;62667;48.698;8.762;2023-06-19T04:16:15;95861.00;;;18.60
10869;BMP180;62667;48.698;8.762;2023-06-19T04:18:42;95854.00;;;18.60
10869;BMP180;62667;48.698;8.762;2023-06-19T04:21:10;95865.00;;;18.60
10869;BMP180;62667;48.698;8.762;2023-06-19T04:23:37;95849.00;;;18.70
10869;BMP180;62667;48.698;8.762;2023-06-19T04:26:05;95854.00;;;18.50
10869;BMP180;62667;48.698;8.762;2023-06-19T04:28:32;95846.00;;;18.50
10869;BMP180;62667;48.698;8.762;2023-06-19T04:31:00;95852.00;;;18.50
10869;BMP180;62667;48.698;8.762;2023-06-19T04:33:29;95845.00;;;18.50
10869;BMP180;62667;48.698;8.762;2023-06-19T04:35:56;95851.00;;;18.40
10869;BMP180;62667;48.698;8.762;2023-06-19T04:38:24;95845.00;;;18.20
10869;BMP180;62667;48.698;8.762;2023-06-19T04:40:51;95845.00;;;18.10
10869;BMP180;62667;48.698;8.762;2023-06-19T04:43:19;95826.00;;;18.20
10869;BMP180;62667;48.698;8.762;2023-06-19T04:45:46;95835.00;;;18.30
10869;BMP180;62667;48.698;8.762;2023-06-19T04:48:14;95836.00;;;18.50
10869;BMP180;62667;48.698;8.762;2023-06-19T04:50:43;95839.00;;;18.70
10869;BMP180;62667;48.698;8.762;2023-06-19T04:53:10;95834.00;;;18.70
10869;BMP180;62667;48.698;8.762;2023-06-19T04:55:38;95836.00;;;18.60
10869;BMP180;62667;48.698;8.762;2023-06-19T04:58:05;95839.00;;;18.70
10869;BMP180;62667;48.698;8.762;2023-06-19T05:00:33;95839.00;;;18.80
10869;BMP180;62667;48.698;8.762;2023-06-19T05:03:00;95839.00;;;18.90
10869;BMP180;62667;48.698;8.762;2023-06-19T05:05:28;95841.00;;;19.00
10869;BMP180;62667;48.698;8.762;2023-06-19T05:07:57;95842.00;;;18.90
10869;BMP180;62667;48.698;8.762;2023-06-19T05:10:24;95841.00;;;19.00
10869;BMP180;62667;48.698;8.762;2023-06-19T05:12:52;95841.00;;;19.10
10869;BMP180;62667;48.698;8.762;2023-06-19T05:15:19;95842.00;;;19.10
10869;BMP180;62667;48.698;8.762;2023-06-19T05:17:47;95844.00;;;19.20
10869;BMP180;62667;48.698;8.762;2023-06-19T05:20:14;95840.00;;;19.30
10869;BMP180;62667;48.698;8.762;2023-06-19T05:22:42;95843.00;;;19.30
10869;BMP180;62667;48.698;8.762;2023-06-19T05:25:11;95845.00;;;19.50
10869;BMP180;62667;48.698;8.762;2023-06-19T05:27:38;95850.00;;;19.50
10869;BMP180;62667;48.698;8.762;2023-06-19T05:30:07;95837.00;;;19.60
10869;BMP180;62667;48.698;8.762;2023-06-19T05:32:34;95840.00;;;19.50
10869;BMP180;62667;48.698;8.762;2023-06-19T05:35:02;95846.00;;;19.50
10869;BMP180;62667;48.698;8.762;2023-06-19T05:37:29;95845.00;;;19.50
10869;BMP180;62667;48.698;8.762;2023-06-19T05:39:57;95842.00;;;19.60
10869;BMP180;62667;48.698;8.762;2023-06-19T05:42:25;95841.00;;;19.60
10869;BMP180;62667;48.698;8.762;2023-06-19T05:44:53;95837.00;;;19.60
10869;BMP180;62667;48.698;8.762;2023-06-19T05:47:20;95844.00;;;19.70
10869;BMP180;62667;48.698;8.762;2023-06-19T05:49:51;95846.00;;;19.70
10869;BMP180;62667;48.698;8.762;2023-06-19T05:52:19;95840.00;;;19.60
10869;BMP180;62667;48.698;8.762;2023-06-19T05:54:47;95845.00;;;19.60
10869;BMP180;62667;48.698;8.762;2023-06-19T05:57:14;95846.00;;;19.70
10869;BMP180;62667;48.698;8.762;2023-06-19T05:59:43;95845.00;;;19.80
10869;BMP180;62667;48.698;8.762;2023-06-19T06:02:11;95849.00;;;19.90
10869;BMP180;62667;48.698;8.762;2023-06-19T06:04:38;95840.00;;;19.90
10869;BMP180;62667;48.698;8.762;2023-06-19T06:07:06;95851.00;;;20.20
10869;BMP180;62667;48.698;8.762;2023-06-19T06:09:34;95854.00;;;20.20
10869;BMP180;62667;48.698;8.762;2023-06-19T06:12:02;95860.00;;;20.40
10869;BMP180;62667;48.698;8.762;2023-06-19T06:14:29;95860.00;;;20.20
10869;BMP180;62667;48.698;8.762;2023-06-19T06:16:58;95868.00;;;20.30
10869;BMP180;62667;48.698;8.762;2023-06-19T06:19:25;95876.00;;;20.30
10869;BMP180;62667;48.698;8.762;2023-06-19T06:21:53;95880.00;;;20.30
10869;BMP180;62667;48.698;8.762;2023-06-19T06:24:20;95875.00;;;20.30
10869;BMP180;62667;48.698;8.762;2023-06-19T06:26:48;95874.00;;;20.40
10869;BMP180;62667;48.698;8.762;2023-06-19T06:29:15;95881.00;;;20.50
10869;BMP180;62667;48.698;8.762;2023-06-19T06:31:46;95876.00;;;20.40
10869;BMP180;62667;48.698;8.762;2023-06-19T06:34:15;95873.00;;;20.60
10869;BMP180;62667;48.698;8.762;2023-06-19T06:36:43;95876.00;;;20.60
10869;BMP180;62667;48.698;8.762;2023-06-19T06:39:10;95874.00;;;20.60
10869;BMP180;62667;48.698;8.762;2023-06-19T06:41:38;95884.00;;;20.60
10869;BMP180;62667;48.698;8.762;2023-06-19T06:44:05;95880.00;;;20.60
10869;BMP180;62667;48.698;8.762;2023-06-19T06:46:33;95889.00;;;20.80
10869;BMP180;62667;48.698;8.762;2023-06-19T06:49:00;95881.00;;;20.80
10869;BMP180;62667;48.698;8.762;2023-06-19T06:51:29;95897.00;;;21.10
10869;BMP180;62667;48.698;8.762;2023-06-19T06:53:57;95896.00;;;21.20
10869;BMP180;62667;48.698;8.762;2023-06-19T06:56:24;95905.00;;;21.20
10869;BMP180;62667;48.698;8.762;2023-06-19T06:58:51;95909.00;;;21.30
10869;BMP180;62667;48.698;8.762;2023-06-19T07:01:19;95908.00;;;21.40
10869;BMP180;62667;48.698;8.762;2023-06-19T07:03:46;95911.00;;;21.60
10869;BMP180;62667;48.698;8.762;2023-06-19T07:06:14;95908.00;;;21.30
10869;BMP180;62667;48.698;8.762;2023-06-19T07:08:43;95921.00;;;21.30
10869;BMP180;62667;48.698;8.762;2023-06-19T07:11:13;95923.00;;;21.40
10869;BMP180;62667;48.698;8.762;2023-06-19T07:13:41;95930.00;;;21.20
10869;BMP180;62667;48.698;8.762;2023-06-19T07:16:08;95924.00;;;21.00
10869;BMP180;62667;48.698;8.762;2023-06-19T07:18:36;95927.00;;;21.20
10869;BMP180;62667;48.698;8.762;2023-06-19T07:21:12;95927.00;;;21.30
10869;BMP180;62667;48.698;8.762;2023-06-19T07:23:41;95925.00;;;21.40
10869;BMP180;62667;48.698;8.762;2023-06-19T07:26:10;95943.00;;;21.50
10869;BMP180;62667;48.698;8.762;2023-06-19T07:28:37;95936.00;;;21.70
10869;BMP180;62667;48.698;8.762;2023-06-19T07:31:05;95932.00;;;21.80
10869;BMP180;62667;48.698;8.762;2023-06-19T07:33:32;95931.00;;;21.90
10869;BMP180;62667;48.698;8.762;2023-06-19T07:35:59;95945.00;;;22.10
10869;BMP180;62667;48.698;8.762;2023-06-19T07:38:28;95938.00;;;21.90
10869;BMP180;62667;48.698;8.762;2023-06-19T07:40:57;95935.00;;;22.10
10869;BMP180;62667;48.698;8.762;2023-06-19T07:43:25;95933.00;;;22.50
10869;BMP180;62667;48.698;8.762;2023-06-19T07:45:52;95938.00;;;22.70
10869;BMP180;62667;48.698;8.762;2023-06-19T07:48:19;95937.00;;;22.60
10869;BMP180;62667;48.698;8.762;2023-06-19T07:50:47;95931.00;;;22.70
10869;BMP180;62667;48.698;8.762;2023-06-19T07:53:15;95929.00;;;22.80
10869;BMP180;62667;48.698;8.762;2023-06-19T07:55:42;95929.00;;;23.20
10869;BMP180;62667;48.698;8.762;2023-06-19T07:58:11;95937.00;;;23.00
10869;BMP180;62667;48.698;8.762;2023-06-19T08:00:38;95935.00;;;23.00
10869;BMP180;62667;48.698;8.762;2023-06-19T08:03:06;95923.00;;;23.20
10869;BMP180;62667;48.698;8.762;2023-06-19T08:05:33;95925.00;;;23.40
10869;BMP180;62667;48.698;8.762;2023-06-19T08:08:01;95930.00;;;23.70
10869;BMP180;62667;48.698;8.762;2023-06-19T08:10:28;95927.00;;;23.70
10869;BMP180;62667;48.698;8.762;2023-06-19T08:12:56;95929.00;;;23.80
10869;BMP180;62667;48.698;8.762;2023-06-19T08:15:25;95919.00;;;23.90
10869;BMP180;62667;48.698;8.762;2023-06-19T08:17:52;95919.00;;;24.30
10869;BMP180;62667;48.698;8.762;2023-06-19T08:20:20;95915.00;;;24.50
10869;BMP180;62667;48.698;8.762;2023-06-19T08:22:47;95918.00;;;24.70
10869;BMP180;62667;48.698;8.762;2023-06-19T08:25:15;95906.00;;;24.50
10869;BMP180;62667;48.698;8.762;2023-06-19T08:27:43;95912.00;;;24.80
10869;BMP180;62667;48.698;8.762;2023-06-19T08:30:11;95903.00;;;24.20
10869;BMP180;62667;48.698;8.762;2023-06-19T08:32:40;95903.00;;;24.20
10869;BMP180;62667;48.698;8.762;2023-06-19T08:35:08;95907.00;;;24.60
10869;BMP180;62667;48.698;8.762;2023-06-19T08:37:35;95908.00;;;24.40
10869;BMP180;62667;48.698;8.762;2023-06-19T08:40:03;95896.00;;;24.30
10869;BMP180;62667;48.698;8.762;2023-06-19T08:42:35;95883.00;;;24.70
10869;BMP180;62667;48.698;8.762;2023-06-19T08:45:02;95901.00;;;24.90
10869;BMP180;62667;48.698;8.762;2023-06-19T08:47:31;95897.00;;;25.30
10869;BMP180;62667;48.698;8.762;2023-06-19T08:50:01;95894.00;;;24.90
10869;BMP180;62667;48.698;8.762;2023-06-19T08:52:29;95891.00;;;25.10
10869;BMP180;62667;48.698;8.762;2023-06-19T08:54:56;95892.00;;;25.20
10869;BMP180;62667;48.698;8.762;2023-06-19T08:57:34;95894.00;;;25.00
10869;BMP180;62667;48.698;8.762;2023-06-19T09:00:02;95894.00;;;25.20
10869;BMP180;62667;48.698;8.762;2023-06-19T09:02:39;95886.00;;;25.20
10869;BMP180;62667;48.698;8.762;2023-06-19T09:05:15;95890.00;;;25.60
10869;BMP180;62667;48.698;8.762;2023-06-19T09:07:43;95898.00;;;25.30
10869;BMP180;62667;48.698;8.762;2023-06-19T09:10:16;95899.00;;;25.70
10869;BMP180;62667;48.698;8.762;2023-06-19T09:12:44;95892.00;;;26.10
10869;BMP180;62667;48.698;8.762;2023-06-19T09:15:13;95888.00;;;26.40
10869;BMP180;62667;48.698;8.762;2023-06-19T09:17:41;95896.00;;;26.40
10869;BMP180;62667;48.698;8.762;2023-06-19T09:20:11;95891.00;;;26.40
10869;BMP180;62667;48.698;8.762;2023-06-19T09:22:40;95880.00;;;26.70
10869;BMP180;62667;48.698;8.762;2023-06-19T09:25:08;95883.00;;;27.00
10869;BMP180;62667;48.698;8.762;2023-06-19T09:27:37;95893.00;;;27.30
10869;BMP180;62667;48.698;8.762;2023-06-19T09:30:06;95894.00;;;27.60
10869;BMP180;62667;48.698;8.762;2023-06-19T09:32:34;95897.00;;;27.40
10869;BMP180;62667;48.698;8.762;2023-06-19T09:35:02;95902.00;;;27.40
10869;BMP180;62667;48.698;8.762;2023-06-19T09:37:30;95899.00;;;27.00
10869;BMP180;62667;48.698;8.762;2023-06-19T09:40:01;95894.00;;;26.60
10869;BMP180;62667;48.698;8.762;2023-06-19T09:42:36;95902.00;;;26.50
10869;BMP180;62667;48.698;8.762;2023-06-19T09:45:05;95896.00;;;26.30
10869;BMP180;62667;48.698;8.762;2023-06-19T09:47:37;95893.00;;;26.10
10869;BMP180;62667;48.698;8.762;2023-06-19T09:50:06;95891.00;;;26.30
10869;BMP180;62667;48.698;8.762;2023-06-19T09:52:34;95895.00;;;26.60
10869;BMP180;62667;48.698;8.762;2023-06-19T09:55:04;95889.00;;;26.90
10869;BMP180;62667;48.698;8.762;2023-06-19T09:57:33;95886.00;;;27.20
10869;BMP180;62667;48.698;8.762;2023-06-19T10:00:02;95893.00;;;27.40
10869;BMP180;62667;48.698;8.762;2023-06-19T10:02:40;95900.00;;;27.60
10869;BMP180;62667;48.698;8.762;2023-06-19T10:05:08;95897.00;;;27.60
10869;BMP180;62667;48.698;8.762;2023-06-19T10:07:41;95882.00;;;27.90
10869;BMP180;62667;48.698;8.762;2023-06-19T10:10:12;95886.00;;;28.10
10869;BMP180;62667;48.698;8.762;2023-06-19T10:12:49;95883.00;;;28.30
10869;BMP180;62667;48.698;8.762;2023-06-19T10:15:18;95887.00;;;28.40
10869;BMP180;62667;48.698;8.762;2023-06-19T10:17:48;95890.00;;;28.70
10869;BMP180;62667;48.698;8.762;2023-06-19T10:20:23;95894.00;;;28.50
10869;BMP180;62667;48.698;8.762;2023-06-19T10:22:52;95895.00;;;28.40
10869;BMP180;62667;48.698;8.762;2023-06-19T10:25:22;95897.00;;;28.30
10869;BMP180;62667;48.698;8.762;2023-06-19T10:27:50;95883.00;;;28.50
10869;BMP180;62667;48.698;8.762;2023-06-19T10:30:19;95886.00;;;28.40
10869;BMP180;62667;48.698;8.762;2023-06-19T10:32:47;95892.00;;;28.00
10869;BMP180;62667;48.698;8.762;2023-06-19T10:35:16;95869.00;;;28.00
10869;BMP180;62667;48.698;8.762;2023-06-19T10:37:44;95878.00;;;27.70
10869;BMP180;62667;48.698;8.762;2023-06-19T10:40:12;95868.00;;;28.20
10869;BMP180;62667;48.698;8.762;2023-06-19T10:42:41;95867.00;;;28.40
10869;BMP180;62667;48.698;8.762;2023-06-19T10:45:10;95867.00;;;29.10
10869;BMP180;62667;48.698;8.762;2023-06-19T10:47:40;95856.00;;;29.40
10869;BMP180;62667;48.698;8.762;2023-06-19T10:50:11;95860.00;;;29.80
10869;BMP180;62667;48.698;8.762;2023-06-19T10:52:43;95869.00;;;29.90
10869;BMP180;62667;48.698;8.762;2023-06-19T10:55:11;95867.00;;;29.50
10869;BMP180;62667;48.698;8.762;2023-06-19T10:57:44;95862.00;;;29.40
10869;BMP180;62667;48.698;8.762;2023-06-19T11:00:21;95872.00;;;29.40
10869;BMP180;62667;48.698;8.762;2023-06-19T11:02:49;95875.00;;;29.20
10869;BMP180;62667;48.698;8.762;2023-06-19T11:05:20;95871.00;;;28.90
10869;BMP180;62667;48.698;8.762;2023-06-19T11:07:52;95874.00;;;27.80
10869;BMP180;62667;48.698;8.762;2023-06-19T11:10:21;95876.00;;;27.90
10869;BMP180;62667;48.698;8.762;2023-06-19T11:12:52;95875.00;;;27.60
10869;BMP180;62667;48.698;8.762;2023-06-19T11:15:27;95877.00;;;27.40
10869;BMP180;62667;48.698;8.762;2023-06-19T11:17:55;95871.00;;;27.60
10869;BMP180;62667;48.698;8.762;2023-06-19T11:20:22;95869.00;;;27.90
10869;BMP180;62667;48.698;8.762;2023-06-19T11:22:55;95870.00;;;28.00
10869;BMP180;62667;48.698;8.762;2023-06-19T11:25:23;95860.00;;;28.30
10869;BMP180;62667;48.698;8.762;2023-06-19T11:27:52;95862.00;;;28.50
10869;BMP180;62667;48.698;8.762;2023-06-19T11:30:30;95869.00;;;28.90
10869;BMP180;62667;48.698;8.762;2023-06-19T11:32:59;95873.00;;;28.60
10869;BMP180;62667;48.698;8.762;2023-06-19T11:35:33;95876.00;;;28.70
10869;BMP180;62667;48.698;8.762;2023-06-19T11:38:02;95872.00;;;28.40
10869;BMP180;62667;48.698;8.762;2023-06-19T11:40:39;95861.00;;;28.60
10869;BMP180;62667;48.698;8.762;2023-06-19T11:43:08;95834.00;;;29.40
10869;BMP180;62667;48.698;8.762;2023-06-19T11:45:45;95843.00;;;29.70
10869;BMP180;62667;48.698;8.762;2023-06-19T11:48:13;95842.00;;;30.20
10869;BMP180;62667;48.698;8.762;2023-06-19T11:50:41;95835.00;;;30.20
10869;BMP180;62667;48.698;8.762;2023-06-19T11:53:08;95841.00;;;30.40
10869;BMP180;62667;48.698;8.762;2023-06-19T11:55:36;95835.00;;;30.40
10869;BMP180;62667;48.698;8.762;2023-06-19T11:58:04;95834.00;;;30.70
10869;BMP180;62667;48.698;8.762;2023-06-19T12:00:32;95826.00;;;30.90
10869;BMP180;62667;48.698;8.762;2023-06-19T12:03:00;95855.00;;;31.00
10869;BMP180;62667;48.698;8.762;2023-06-19T12:05:28;95825.00;;;30.90
10869;BMP180;62667;48.698;8.762;2023-06-19T12:07:56;95829.00;;;30.80
10869;BMP180;62667;48.698;8.762;2023-06-19T12:10:24;95850.00;;;30.40
10869;BMP180;62667;48.698;8.762;2023-06-19T12:12:52;95849.00;;;30.10
10869;BMP180;62667;48.698;8.762;2023-06-19T12:15:19;95851.00;;;29.90
10869;BMP180;62667;48.698;8.762;2023-06-19T12:17:48;95849.00;;;30.00
10869;BMP180;62667;48.698;8.762;2023-06-19T12:20:16;95846.00;;;29.70
10869;BMP180;62667;48.698;8.762;2023-06-19T12:22:44;95854.00;;;29.90
10869;BMP180;62667;48.698;8.762;2023-06-19T12:25:11;95849.00;;;30.00
10869;BMP180;62667;48.698;8.762;2023-06-19T12:27:39;95849.00;;;30.00
10869;BMP180;62667;48.698;8.762;2023-06-19T12:30:08;95845.00;;;30.00
10869;BMP180;62667;48.698;8.762;2023-06-19T12:32:36;95847.00;;;30.20
10869;BMP180;62667;48.698;8.762;2023-06-19T12:35:05;95847.00;;;30.00
10869;BMP180;62667;48.698;8.762;2023-06-19T12:37:33;95844.00;;;30.30
10869;BMP180;62667;48.698;8.762;2023-06-19T12:40:01;95841.00;;;29.90
10869;BMP180;62667;48.698;8.762;2023-06-19T12:42:34;95847.00;;;30.00
10869;BMP180;62667;48.698;8.762;2023-06-19T12:45:02;95839.00;;;30.30
10869;BMP180;62667;48.698;8.762;2023-06-19T12:47:30;95838.00;;;30.60
10869;BMP180;62667;48.698;8.762;2023-06-19T12:49:57;95809.00;;;30.90
10869;BMP180;62667;48.698;8.762;2023-06-19T12:52:26;95834.00;;;31.50
10869;BMP180;62667;48.698;8.762;2023-06-19T12:54:54;95833.00;;;31.40
10869;BMP180;62667;48.698;8.762;2023-06-19T12:57:21;95813.00;;;31.10
10869;BMP180;62667;48.698;8.762;2023-06-19T12:59:50;95835.00;;;31.60
10869;BMP180;62667;48.698;8.762;2023-06-19T13:02:19;95836.00;;;31.30
10869;BMP180;62667;48.698;8.762;2023-06-19T13:04:49;95822.00;;;31.10
10869;BMP180;62667;48.698;8.762;2023-06-19T13:07:19;95802.00;;;31.60
10869;BMP180;62667;48.698;8.762;2023-06-19T13:09:49;95824.00;;;31.60
10869;BMP180;62667;48.698;8.762;2023-06-19T13:12:18;95823.00;;;31.40
10869;BMP180;62667;48.698;8.762;2023-06-19T13:14:47;95806.00;;;31.10
10869;BMP180;62667;48.698;8.762;2023-06-19T13:17:15;95824.00;;;31.00
10869;BMP180;62667;48.698;8.762;2023-06-19T13:19:42;95818.00;;;30.80
10869;BMP180;62667;48.698;8.762;2023-06-19T13:22:10;95814.00;;;30.20
10869;BMP180;62667;48.698;8.762;2023-06-19T13:24:37;95820.00;;;30.30
10869;BMP180;62667;48.698;8.762;2023-06-19T13:27:06;95810.00;;;30.60
10869;BMP180;62667;48.698;8.762;2023-06-19T13:29:34;95810.00;;;31.30
10869;BMP180;62667;48.698;8.762;2023-06-19T13:32:02;95803.00;;;31.30
10869;BMP180;62667;48.698;8.762;2023-06-19T13:34:29;95812.00;;;31.20
10869;BMP180;62667;48.698;8.762;2023-06-19T13:36:57;95795.00;;;31.10
10869;BMP180;62667;48.698;8.762;2023-06-19T13:39:24;95816.00;;;30.60
10869;BMP180;62667;48.698;8.762;2023-06-19T13:41:52;95813.00;;;30.70
10869;BMP180;62667;48.698;8.762;2023-06-19T13:44:21;95812.00;;;30.70
10869;BMP180;62667;48.698;8.762;2023-06-19T13:46:48;95810.00;;;30.60
10869;BMP180;62667;48.698;8.762;2023-06-19T13:49:16;95801.00;;;30.70
10869;BMP180;62667;48.698;8.762;2023-06-19T13:51:44;95796.00;;;31.10
10869;BMP180;62667;48.698;8.762;2023-06-19T13:54:11;95784.00;;;31.30
10869;BMP180;62667;48.698;8.762;2023-06-19T13:56:39;95779.00;;;31.60
10869;BMP180;62667;48.698;8.762;2023-06-19T13:59:07;95771.00;;;32.20
10869;BMP180;62667;48.698;8.762;2023-06-19T14:01:36;95777.00;;;32.10
10869;BMP180;62667;48.698;8.762;2023-06-19T14:04:04;95765.00;;;31.80
10869;BMP180;62667;48.698;8.762;2023-06-19T14:06:32;95780.00;;;32.30
10869;BMP180;62667;48.698;8.762;2023-06-19T14:09:01;95775.00;;;32.20
10869;BMP180;62667;48.698;8.762;2023-06-19T14:11:28;95774.00;;;31.40
10869;BMP180;62667;48.698;8.762;2023-06-19T14:13:58;95771.00;;;31.60
10869;BMP180;62667;48.698;8.762;2023-06-19T14:16:26;95777.00;;;31.60